Time;durP1;ratioP1;P1;durP2;ratioP2;P2;SDS_P1;SDS_P2;PMS_P1;PMS_P2;Temp;Humidity;BMP_temperature;BMP_pressure;BME280_temperature;BME280_humidity;BME280_pressure;Samples;Min_cycle;Max_cycle;Signal;HPM_P1;HPM_P2
2023/07/09 00:01:56;;;;;;;10.60;6.13;;;21.10;99.90;;;;;;5074114;28;20035;-54
2023/07/09 00:04:22;;;;;;;11.73;6.32;;;21.00;99.90;;;;;;5074901;28;20465;-56
2023/07/09 00:06:48;;;;;;;12.18;6.18;;;21.00;99.90;;;;;;5056994;28;20042;-56
2023/07/09 00:09:20;;;;;;;11.50;6.20;;;20.80;99.90;;;;;;5074267;28;20098;-55
2023/07/09 00:11:46;;;;;;;10.23;6.10;;;21.00;99.90;;;;;;5074475;28;20036;-56
2023/07/09 00:14:14;;;;;;;12.20;6.13;;;21.00;99.90;;;;;;5056768;28;20105;-56
2023/07/09 00:16:41;;;;;;;11.18;6.50;;;20.90;99.90;;;;;;5074106;28;20410;-56
2023/07/09 00:19:16;;;;;;;10.95;6.50;;;20.70;99.90;;;;;;5073838;28;20577;-56
2023/07/09 00:21:44;;;;;;;10.57;6.32;;;20.70;99.90;;;;;;5075208;28;20359;-55
2023/07/09 00:24:13;;;;;;;13.18;6.97;;;20.60;99.90;;;;;;5074539;28;20054;-56
2023/07/09 00:26:40;;;;;;;8.13;5.93;;;20.80;99.90;;;;;;5074657;28;20676;-56
2023/07/09 00:29:10;;;;;;;9.05;6.43;;;20.80;99.90;;;;;;5075916;28;20117;-53
2023/07/09 00:31:40;;;;;;;14.05;5.55;;;20.80;99.90;;;;;;5075723;28;20357;-54
2023/07/09 00:34:14;;;;;;;8.40;6.07;;;20.90;99.90;;;;;;5057178;28;20350;-55
2023/07/09 00:36:43;;;;;;;8.68;6.05;;;21.00;99.90;;;;;;5074982;28;21448;-56
2023/07/09 00:39:21;;;;;;;10.32;6.20;;;20.90;99.90;;;;;;5074758;28;20032;-56
2023/07/09 00:41:48;;;;;;;10.07;6.68;;;20.90;99.90;;;;;;5074613;28;20116;-56
2023/07/09 00:44:25;;;;;;;10.80;5.43;;;20.90;99.90;;;;;;5074854;28;20150;-55
2023/07/09 00:46:50;;;;;;;9.57;5.72;;;21.10;99.90;;;;;;5075354;28;20044;-56
2023/07/09 00:49:29;;;;;;;9.68;6.05;;;21.00;99.90;;;;;;5073524;28;20035;-53
2023/07/09 00:52:01;;;;;;;15.07;6.85;;;20.90;99.90;;;;;;5074606;28;20044;-55
2023/07/09 00:54:37;;;;;;;11.32;6.45;;;21.00;99.90;;;;;;5073982;28;20552;-56
2023/07/09 00:57:12;;;;;;;10.23;6.68;;;21.00;99.90;;;;;;5073601;28;20427;-55
2023/07/09 00:59:39;;;;;;;11.13;6.18;;;21.10;99.90;;;;;;5073766;28;20500;-54
2023/07/09 01:02:07;;;;;;;8.65;5.68;;;21.10;99.90;;;;;;5073619;28;20040;-55
2023/07/09 01:04:33;;;;;;;11.68;6.25;;;20.90;99.90;;;;;;5072949;28;20047;-54
2023/07/09 01:06:59;;;;;;;11.85;6.43;;;20.90;99.90;;;;;;5074461;28;20040;-56
2023/07/09 01:09:25;;;;;;;10.70;6.30;;;20.90;99.90;;;;;;5073939;28;20083;-54
2023/07/09 01:11:56;;;;;;;9.35;6.38;;;20.90;99.90;;;;;;5074844;28;20416;-55
2023/07/09 01:14:24;;;;;;;10.43;6.35;;;21.10;99.90;;;;;;5072828;28;20055;-55
2023/07/09 01:16:57;;;;;;;10.77;6.63;;;20.90;99.90;;;;;;5074344;28;20135;-55
2023/07/09 01:19:25;;;;;;;9.27;6.05;;;20.90;99.90;;;;;;5073858;28;20040;-56
2023/07/09 01:21:59;;;;;;;9.63;6.55;;;20.80;99.90;;;;;;5072732;28;20032;-55
2023/07/09 01:25:02;;;;;;;12.30;6.07;;;20.80;99.90;;;;;;5073080;28;20058;-56
2023/07/09 01:27:40;;;;;;;10.07;5.85;;;20.60;99.90;;;;;;5072964;28;20148;-55
2023/07/09 01:30:26;;;;;;;8.80;5.63;;;20.60;99.90;;;;;;5073528;28;20396;-56
2023/07/09 01:32:55;;;;;;;9.18;6.32;;;20.60;99.90;;;;;;5072551;28;20276;-56
2023/07/09 01:35:21;;;;;;;10.70;6.78;;;20.50;99.90;;;;;;5072755;28;20134;-55
2023/07/09 01:37:48;;;;;;;9.93;6.68;;;20.60;99.90;;;;;;5074084;28;20036;-57
2023/07/09 01:40:18;;;;;;;8.93;6.35;;;20.40;99.90;;;;;;5074606;28;20044;-56
2023/07/09 01:42:44;;;;;;;10.80;6.60;;;20.50;99.90;;;;;;5074498;28;20051;-56
2023/07/09 01:45:11;;;;;;;9.27;6.32;;;20.50;99.90;;;;;;5054833;28;20036;-56
2023/07/09 01:47:38;;;;;;;14.38;6.88;;;19.90;99.90;;;;;;5074488;28;20048;-55
2023/07/09 01:50:05;;;;;;;15.57;7.22;;;20.20;99.90;;;;;;5072608;28;20762;-54
2023/07/09 01:52:33;;;;;;;8.32;6.50;;;20.20;99.90;;;;;;5073481;28;20393;-56
2023/07/09 01:54:59;;;;;;;10.05;6.30;;;20.20;99.90;;;;;;5054852;28;20131;-55
2023/07/09 01:57:32;;;;;;;10.48;6.38;;;20.10;99.90;;;;;;5074138;28;20040;-56
2023/07/09 02:00:00;;;;;;;9.00;6.13;;;20.00;99.90;;;;;;5072856;28;20047;-55
2023/07/09 02:02:26;;;;;;;8.52;6.10;;;19.70;99.90;;;;;;5072937;28;20048;-55
2023/07/09 02:04:54;;;;;;;9.75;6.32;;;19.90;99.90;;;;;;5053513;28;20032;-56
2023/07/09 02:07:21;;;;;;;11.63;6.43;;;19.90;99.90;;;;;;5073588;28;20096;-55
2023/07/09 02:09:46;;;;;;;9.38;6.78;;;19.60;99.90;;;;;;5072402;28;20052;-56
2023/07/09 02:12:14;;;;;;;9.55;6.53;;;20.00;99.90;;;;;;5073243;28;20074;-55
2023/07/09 02:14:41;;;;;;;13.57;7.22;;;19.60;99.90;;;;;;5072076;28;20126;-55
2023/07/09 02:17:08;;;;;;;11.18;7.43;;;19.50;99.90;;;;;;5072995;28;20052;-55
2023/07/09 02:19:34;;;;;;;10.02;7.18;;;19.60;99.90;;;;;;5073235;28;20071;-56
2023/07/09 02:22:00;;;;;;;12.05;6.40;;;19.40;99.90;;;;;;5072325;28;20075;-55
2023/07/09 02:24:27;;;;;;;9.38;6.78;;;19.60;99.90;;;;;;5072329;28;20329;-55
2023/07/09 02:26:58;;;;;;;11.02;7.10;;;19.60;99.90;;;;;;5071984;28;20470;-55
2023/07/09 02:29:25;;;;;;;11.77;6.65;;;19.80;99.90;;;;;;5071721;28;20054;-55
2023/07/09 02:31:52;;;;;;;11.63;7.13;;;19.60;99.90;;;;;;5071626;28;20403;-54
2023/07/09 02:34:19;;;;;;;10.25;6.78;;;19.90;99.90;;;;;;5071479;28;20139;-55
2023/07/09 02:36:45;;;;;;;9.57;6.75;;;19.60;99.90;;;;;;5072803;28;20048;-54
2023/07/09 02:39:12;;;;;;;9.88;6.88;;;19.60;99.90;;;;;;5054410;28;20043;-56
2023/07/09 02:41:39;;;;;;;9.98;6.53;;;19.40;99.90;;;;;;5076013;28;20929;-56
2023/07/09 02:44:06;;;;;;;11.20;7.15;;;19.30;99.90;;;;;;5075651;28;20040;-56
2023/07/09 02:46:32;;;;;;;10.27;6.80;;;19.30;99.90;;;;;;5058124;28;20408;-56
2023/07/09 02:48:57;;;;;;;11.07;7.05;;;19.20;99.90;;;;;;5075316;28;20626;-54
2023/07/09 02:51:26;;;;;;;9.75;6.70;;;19.20;99.90;;;;;;5076905;28;20047;-54
2023/07/09 02:53:55;;;;;;;9.05;7.18;;;19.20;99.90;;;;;;5076202;28;20469;-55
2023/07/09 02:56:21;;;;;;;11.20;6.90;;;19.20;99.90;;;;;;5076538;28;20564;-54
2023/07/09 02:58:47;;;;;;;10.23;7.10;;;18.90;99.90;;;;;;5076138;28;20047;-56
2023/07/09 03:01:13;;;;;;;10.98;7.90;;;19.00;99.90;;;;;;5076369;28;20040;-56
2023/07/09 03:03:39;;;;;;;16.17;7.18;;;19.00;99.90;;;;;;5076582;28;20109;-55
2023/07/09 03:06:06;;;;;;;10.57;6.60;;;18.90;99.90;;;;;;5058864;28;20595;-55
2023/07/09 03:08:32;;;;;;;12.27;7.20;;;19.10;99.90;;;;;;5076898;28;20039;-55
2023/07/09 03:10:58;;;;;;;10.18;6.90;;;18.90;99.90;;;;;;5076462;28;20372;-55
2023/07/09 03:13:24;;;;;;;9.18;7.00;;;18.90;99.90;;;;;;5077471;28;20056;-54
2023/07/09 03:15:57;;;;;;;14.35;7.68;;;19.00;99.90;;;;;;5075997;28;20040;-56
2023/07/09 03:18:23;;;;;;;11.20;7.60;;;18.90;99.90;;;;;;5076926;28;20051;-56
2023/07/09 03:20:49;;;;;;;12.52;7.93;;;18.90;99.90;;;;;;5076972;28;20040;-56
2023/07/09 03:23:15;;;;;;;12.43;7.65;;;19.00;99.90;;;;;;5076709;28;20040;-54
2023/07/09 03:25:44;;;;;;;10.23;7.88;;;19.00;99.90;;;;;;5075643;28;20056;-55
2023/07/09 03:28:11;;;;;;;15.57;7.82;;;19.10;99.90;;;;;;5075900;28;20047;-56
2023/07/09 03:30:45;;;;;;;12.75;7.50;;;18.80;99.90;;;;;;5075060;28;20563;-56
2023/07/09 03:33:12;;;;;;;14.52;6.82;;;18.90;99.90;;;;;;5074494;28;20063;-56
2023/07/09 03:35:40;;;;;;;12.18;6.97;;;18.80;99.90;;;;;;5074400;28;20044;-55
2023/07/09 03:38:08;;;;;;;10.52;7.22;;;18.80;99.90;;;;;;5074857;28;20402;-55
2023/07/09 03:40:34;;;;;;;9.55;7.10;;;18.80;99.90;;;;;;5075661;28;20034;-56
2023/07/09 03:43:00;;;;;;;10.68;7.28;;;17.30;99.90;;;;;;5056383;28;20427;-53
2023/07/09 03:45:26;;;;;;;11.95;6.93;;;18.90;99.90;;;;;;5074313;28;20055;-55
2023/07/09 03:47:52;;;;;;;10.30;7.38;;;19.20;99.90;;;;;;5057049;28;20048;-54
2023/07/09 03:50:18;;;;;;;10.85;7.20;;;19.10;99.90;;;;;;5074720;28;21431;-55
2023/07/09 03:52:44;;;;;;;13.13;7.97;;;19.20;99.90;;;;;;5057164;28;20668;-55
2023/07/09 03:55:10;;;;;;;10.60;7.28;;;19.10;99.90;;;;;;5074243;28;20040;-54
2023/07/09 03:57:36;;;;;;;11.57;7.03;;;18.90;99.90;;;;;;5074977;28;20069;-55
2023/07/09 04:00:04;;;;;;;11.13;7.18;;;19.00;99.90;;;;;;5074953;28;20485;-56
2023/07/09 04:02:31;;;;;;;12.18;7.13;;;18.90;99.90;;;;;;5057846;28;20082;-55
2023/07/09 04:04:57;;;;;;;10.70;7.15;;;19.00;99.90;;;;;;5075305;28;20392;-54
2023/07/09 04:07:23;;;;;;;9.20;7.20;;;19.00;99.90;;;;;;5075426;28;20043;-55
2023/07/09 04:09:48;;;;;;;10.10;7.10;;;19.00;99.90;;;;;;5075381;28;20055;-55
2023/07/09 04:12:14;;;;;;;11.40;7.15;;;19.20;99.90;;;;;;5076972;28;20047;-55
2023/07/09 04:14:41;;;;;;;12.80;7.13;;;19.00;99.90;;;;;;5057152;28;20031;-54
2023/07/09 04:17:06;;;;;;;10.05;7.63;;;19.10;99.90;;;;;;5058316;28;20040;-55
2023/07/09 04:19:32;;;;;;;12.48;7.40;;;19.10;99.90;;;;;;5075421;28;20055;-54
2023/07/09 04:21:58;;;;;;;9.63;7.13;;;19.20;99.90;;;;;;5076709;28;20068;-54
2023/07/09 04:24:23;;;;;;;10.80;6.90;;;19.40;99.90;;;;;;5076399;28;20436;-54
2023/07/09 04:26:49;;;;;;;12.77;7.22;;;19.20;99.90;;;;;;5074723;28;20040;-56
2023/07/09 04:29:15;;;;;;;10.60;7.28;;;19.50;99.90;;;;;;5074510;28;20047;-54
2023/07/09 04:31:41;;;;;;;11.02;6.93;;;19.10;99.90;;;;;;5057060;28;20036;-56
2023/07/09 04:34:07;;;;;;;9.02;6.85;;;19.40;99.90;;;;;;5073643;28;20539;-55
2023/07/09 04:36:34;;;;;;;13.88;7.53;;;19.50;99.90;;;;;;5055912;28;20433;-55
2023/07/09 04:39:00;;;;;;;11.80;7.30;;;19.50;99.90;;;;;;5074122;28;20361;-56
2023/07/09 04:41:25;;;;;;;9.93;7.47;;;19.60;99.90;;;;;;5074530;28;20493;-55
2023/07/09 04:43:51;;;;;;;11.50;7.05;;;19.70;99.90;;;;;;5055197;28;20036;-56
2023/07/09 04:46:17;;;;;;;12.35;7.93;;;19.60;99.90;;;;;;5055496;28;20044;-56
2023/07/09 04:48:42;;;;;;;9.38;6.53;;;19.70;99.90;;;;;;5075620;28;24137;-54
2023/07/09 04:51:08;;;;;;;12.65;7.40;;;19.60;99.90;;;;;;5074470;28;20641;-54
2023/07/09 04:53:34;;;;;;;13.23;7.45;;;19.80;99.90;;;;;;5073648;28;20036;-53
2023/07/09 04:56:02;;;;;;;11.13;7.05;;;19.90;99.90;;;;;;5055369;28;20437;-55
2023/07/09 04:58:29;;;;;;;9.23;7.22;;;20.00;99.90;;;;;;5073230;28;20457;-55
2023/07/09 05:00:59;;;;;;;11.60;7.50;;;20.00;99.90;;;;;;5074444;28;20306;-56
2023/07/09 05:03:24;;;;;;;9.57;7.30;;;19.90;99.90;;;;;;5073204;28;20503;-55
2023/07/09 05:05:50;;;;;;;10.70;6.68;;;19.90;99.90;;;;;;5073894;28;20470;-56
2023/07/09 05:08:19;;;;;;;11.50;6.85;;;20.10;99.90;;;;;;5074021;28;20043;-55
2023/07/09 05:10:46;;;;;;;13.50;7.50;;;20.30;99.90;;;;;;5073090;28;20109;-54
2023/07/09 05:13:12;;;;;;;11.55;7.80;;;20.30;99.90;;;;;;5072839;28;20113;-53
2023/07/09 05:15:44;;;;;;;13.27;7.55;;;20.50;99.90;;;;;;5074013;28;20469;-53
2023/07/09 05:18:10;;;;;;;11.80;7.53;;;20.50;99.90;;;;;;5074775;28;20123;-53
2023/07/09 05:20:36;;;;;;;11.93;7.10;;;20.60;99.90;;;;;;5074987;28;20063;-54
2023/07/09 05:23:01;;;;;;;11.35;7.60;;;20.70;99.90;;;;;;5073459;28;20405;-55
2023/07/09 05:25:27;;;;;;;11.15;7.80;;;21.00;99.90;;;;;;5073571;28;20040;-56
2023/07/09 05:27:53;;;;;;;10.80;7.60;;;20.70;99.90;;;;;;5073691;28;20115;-55
2023/07/09 05:30:19;;;;;;;11.32;6.70;;;21.00;99.90;;;;;;5074880;28;20109;-55
2023/07/09 05:32:45;;;;;;;11.75;7.10;;;21.00;99.90;;;;;;5073453;28;20139;-54
2023/07/09 05:35:11;;;;;;;10.65;7.32;;;21.30;99.90;;;;;;5073366;28;20039;-55
2023/07/09 05:37:37;;;;;;;14.73;7.10;;;21.30;99.90;;;;;;5072960;28;20499;-54
2023/07/09 05:40:05;;;;;;;11.10;7.68;;;21.50;99.90;;;;;;5074314;28;20312;-54
2023/07/09 05:42:31;;;;;;;9.60;7.32;;;21.70;99.90;;;;;;5074519;28;20047;-55
2023/07/09 05:44:57;;;;;;;9.57;7.20;;;21.80;99.90;;;;;;5073619;28;20048;-55
2023/07/09 05:47:23;;;;;;;14.45;6.78;;;21.50;99.90;;;;;;5073418;28;20046;-54
2023/07/09 05:49:50;;;;;;;10.80;6.70;;;21.90;99.90;;;;;;5072982;28;20040;-55
2023/07/09 05:52:21;;;;;;;11.63;7.60;;;21.90;99.90;;;;;;5073347;28;20513;-55
2023/07/09 05:54:49;;;;;;;12.00;7.13;;;22.00;99.90;;;;;;5073060;28;20036;-54
2023/07/09 05:57:15;;;;;;;11.40;7.57;;;21.80;99.90;;;;;;5072981;28;20051;-54
2023/07/09 05:59:41;;;;;;;12.43;8.02;;;21.90;99.90;;;;;;5072279;28;20048;-55
2023/07/09 06:02:20;;;;;;;12.30;7.63;;;22.00;99.90;;;;;;5072074;28;20044;-55
2023/07/09 06:04:46;;;;;;;12.50;7.25;;;22.00;99.90;;;;;;5072388;28;20032;-52
2023/07/09 06:07:13;;;;;;;12.25;8.05;;;22.00;99.90;;;;;;5072619;28;20138;-54
2023/07/09 06:09:39;;;;;;;13.63;7.55;;;22.20;99.90;;;;;;5071884;28;20440;-55
2023/07/09 06:12:06;;;;;;;9.75;7.10;;;22.10;99.90;;;;;;5072041;28;20058;-53
2023/07/09 06:14:33;;;;;;;12.77;8.35;;;22.10;99.90;;;;;;5053974;28;20398;-55
2023/07/09 06:16:59;;;;;;;11.63;7.93;;;22.30;99.90;;;;;;5071702;28;20108;-54
2023/07/09 06:19:25;;;;;;;13.18;8.23;;;22.50;99.90;;;;;;5072208;28;20093;-53
2023/07/09 06:21:51;;;;;;;12.82;7.38;;;22.60;99.90;;;;;;5072258;28;20048;-54
2023/07/09 06:24:17;;;;;;;10.77;7.72;;;23.00;99.90;;;;;;5072795;28;20061;-55
2023/07/09 06:26:43;;;;;;;10.77;8.52;;;23.30;99.90;;;;;;5038632;28;20134;-55
2023/07/09 06:29:09;;;;;;;10.82;7.32;;;23.90;99.90;;;;;;5071850;28;20512;-55
2023/07/09 06:31:36;;;;;;;11.77;7.90;;;23.90;99.90;;;;;;5071531;28;20131;-56
2023/07/09 06:34:01;;;;;;;11.38;7.75;;;24.00;99.90;;;;;;5071880;28;20496;-55
2023/07/09 06:36:27;;;;;;;12.40;7.20;;;24.00;99.90;;;;;;5073074;28;20036;-55
2023/07/09 06:38:53;;;;;;;11.60;7.70;;;24.10;99.90;;;;;;5072441;28;20416;-55
2023/07/09 06:41:19;;;;;;;11.82;7.88;;;24.10;99.90;;;;;;5072209;28;20123;-56
2023/07/09 06:43:45;;;;;;;11.73;7.82;;;24.20;99.90;;;;;;5074183;28;20531;-55
2023/07/09 06:46:12;;;;;;;13.20;7.63;;;24.10;99.90;;;;;;5072657;28;20052;-54
2023/07/09 06:48:38;;;;;;;12.40;8.10;;;24.10;99.90;;;;;;5073709;28;20039;-55
2023/07/09 06:51:04;;;;;;;11.25;7.82;;;24.20;99.90;;;;;;5072656;28;20036;-55
2023/07/09 06:53:30;;;;;;;12.65;8.10;;;24.40;99.90;;;;;;5073542;28;20066;-55
2023/07/09 06:55:58;;;;;;;12.23;8.07;;;24.50;99.90;;;;;;5073637;28;20043;-55
2023/07/09 06:58:27;;;;;;;11.65;8.15;;;24.70;99.90;;;;;;5073630;28;20074;-55
2023/07/09 07:00:56;;;;;;;15.32;8.88;;;24.60;99.90;;;;;;5073558;28;20055;-56
2023/07/09 07:03:26;;;;;;;15.07;8.20;;;25.00;99.90;;;;;;5073293;28;20130;-55
2023/07/09 07:05:53;;;;;;;11.15;7.90;;;25.10;99.90;;;;;;5054808;28;20455;-55
2023/07/09 07:08:22;;;;;;;11.48;7.55;;;25.40;99.90;;;;;;5072797;28;20048;-55
2023/07/09 07:10:49;;;;;;;12.05;8.35;;;26.00;99.90;;;;;;5072138;28;20473;-55
2023/07/09 07:13:15;;;;;;;13.18;7.95;;;25.80;99.90;;;;;;5072327;28;20064;-54
2023/07/09 07:15:41;;;;;;;12.32;7.35;;;26.20;99.90;;;;;;5072789;28;20055;-55
2023/07/09 07:18:08;;;;;;;12.80;7.88;;;26.60;99.90;;;;;;5055142;28;20048;-54
2023/07/09 07:20:34;;;;;;;14.80;7.90;;;26.80;99.90;;;;;;5072265;28;20471;-55
2023/07/09 07:23:00;;;;;;;15.98;8.00;;;27.40;99.90;;;;;;5072585;28;20038;-55
2023/07/09 07:25:26;;;;;;;11.63;7.90;;;27.20;99.90;;;;;;5072837;28;20165;-56
2023/07/09 07:27:53;;;;;;;10.45;7.35;;;27.30;99.90;;;;;;5076667;28;20048;-55
2023/07/09 07:30:19;;;;;;;11.10;6.93;;;27.30;99.90;;;;;;5075373;28;20186;-54
2023/07/09 07:32:47;;;;;;;11.05;8.20;;;27.20;99.90;;;;;;5075749;28;20546;-54
2023/07/09 07:35:13;;;;;;;9.57;7.15;;;27.00;99.90;;;;;;5074330;28;20043;-54
2023/07/09 07:37:40;;;;;;;13.07;7.60;;;27.30;99.90;;;;;;5075074;28;20070;-54
2023/07/09 07:40:07;;;;;;;10.98;7.38;;;27.40;99.90;;;;;;5074429;28;20416;-56
2023/07/09 07:42:33;;;;;;;15.10;8.55;;;28.30;99.90;;;;;;5075869;28;20040;-55
2023/07/09 07:44:58;;;;;;;13.80;7.60;;;29.10;99.90;;;;;;5074855;28;20062;-55
2023/07/09 07:47:25;;;;;;;11.85;7.40;;;29.30;99.90;;;;;;5075182;28;20039;-55
2023/07/09 07:49:51;;;;;;;9.98;7.88;;;29.50;99.90;;;;;;5075054;28;20138;-56
2023/07/09 07:52:17;;;;;;;13.55;8.68;;;30.20;99.90;;;;;;5075218;28;20048;-55
2023/07/09 07:54:43;;;;;;;12.30;8.77;;;30.40;99.90;;;;;;5056319;28;20043;-55
2023/07/09 07:57:09;;;;;;;13.55;7.80;;;30.80;99.90;;;;;;5075430;28;20180;-55
2023/07/09 07:59:35;;;;;;;11.38;8.02;;;31.30;99.90;;;;;;5075263;28;20441;-55
2023/07/09 08:02:02;;;;;;;17.75;9.65;;;31.40;99.90;;;;;;5075494;28;20452;-56
2023/07/09 08:04:28;;;;;;;15.52;8.75;;;31.50;99.90;;;;;;5076142;28;20051;-55
2023/07/09 08:06:55;;;;;;;13.25;8.93;;;31.60;99.90;;;;;;5076285;28;20102;-61
2023/07/09 08:09:21;;;;;;;12.75;8.80;;;31.20;99.90;;;;;;5075241;28;20467;-60
2023/07/09 08:11:47;;;;;;;10.80;8.70;;;31.20;99.90;;;;;;5074698;28;20416;-59
2023/07/09 08:14:13;;;;;;;11.60;8.93;;;31.20;99.90;;;;;;5075812;28;20499;-60
2023/07/09 08:16:39;;;;;;;10.85;8.38;;;31.10;99.90;;;;;;5056984;28;20032;-61
2023/07/09 08:19:05;;;;;;;10.45;7.80;;;31.20;99.90;;;;;;5075521;28;20032;-59
2023/07/09 08:21:31;;;;;;;12.05;8.65;;;31.10;99.90;;;;;;5075674;28;21317;-60
2023/07/09 08:23:57;;;;;;;14.40;8.20;;;31.30;99.90;;;;;;5074525;28;20028;-60
2023/07/09 08:26:24;;;;;;;15.15;8.30;;;31.30;99.90;;;;;;5074034;28;20519;-60
2023/07/09 08:28:50;;;;;;;12.30;8.50;;;31.30;99.90;;;;;;5073539;28;20189;-60
2023/07/09 08:31:17;;;;;;;14.98;9.23;;;31.50;99.90;;;;;;5074592;28;20051;-60
2023/07/09 08:33:42;;;;;;;14.48;8.68;;;31.60;99.90;;;;;;5074454;28;20051;-60
2023/07/09 08:36:08;;;;;;;11.80;8.63;;;31.90;99.90;;;;;;5073368;28;20048;-61
2023/07/09 08:38:34;;;;;;;12.85;8.50;;;32.20;99.90;;;;;;5072620;28;20415;-59
2023/07/09 08:41:04;;;;;;;15.38;9.85;;;32.60;99.90;;;;;;5074560;28;20032;-60
2023/07/09 08:43:54;;;;;;;10.23;7.82;;;32.70;99.90;;;;;;5074667;28;20032;-60
2023/07/09 08:46:29;;;;;;;16.70;9.80;;;32.80;99.90;;;;;;5073641;28;20040;-59
2023/07/09 08:48:58;;;;;;;11.90;9.38;;;32.30;99.90;;;;;;5055883;28;20472;-60
2023/07/09 08:51:39;;;;;;;16.15;9.95;;;31.80;99.90;;;;;;5074271;28;20079;-61
2023/07/09 08:54:14;;;;;;;10.77;9.40;;;31.30;99.90;;;;;;5072774;28;20040;-59
2023/07/09 08:56:41;;;;;;;12.55;8.85;;;31.20;99.90;;;;;;5074652;28;20309;-62
2023/07/09 08:59:11;;;;;;;11.52;9.07;;;31.20;99.90;;;;;;5072870;28;20044;-59
2023/07/09 09:01:46;;;;;;;12.82;8.98;;;30.80;99.90;;;;;;5073474;28;20272;-60
2023/07/09 09:04:36;;;;;;;10.95;8.73;;;31.00;99.90;;;;;;5073550;28;20106;-60
2023/07/09 09:07:26;;;;;;;11.38;9.75;;;30.80;99.90;;;;;;5074482;28;20532;-59
2023/07/09 09:10:02;;;;;;;13.47;9.70;;;30.80;99.90;;;;;;5073384;28;20447;-59
2023/07/09 09:12:37;;;;;;;12.10;9.25;;;30.70;99.90;;;;;;5073881;28;20075;-59
2023/07/09 09:15:13;;;;;;;14.15;10.45;;;30.70;99.90;;;;;;5073452;28;20089;-61
2023/07/09 09:17:40;;;;;;;11.98;8.82;;;30.60;99.90;;;;;;5074775;28;20294;-59
2023/07/09 09:20:28;;;;;;;17.50;9.77;;;31.00;99.90;;;;;;5073960;28;20047;-59
2023/07/09 09:23:01;;;;;;;11.63;8.90;;;31.00;99.90;;;;;;5073835;28;20081;-59
2023/07/09 09:25:32;;;;;;;13.57;9.57;;;31.10;99.90;;;;;;5072474;28;20143;-59
2023/07/09 09:27:59;;;;;;;;;;;30.80;99.90;;;;;;5073690;28;20086;-59
2023/07/09 09:30:25;;;;;;;14.55;10.40;;;30.60;99.90;;;;;;5073369;28;20023;-59
2023/07/09 09:32:58;;;;;;;12.98;9.32;;;30.60;99.90;;;;;;5073675;28;20079;-59
2023/07/09 09:35:33;;;;;;;11.30;8.70;;;30.60;99.90;;;;;;5072827;28;20043;-58
2023/07/09 09:37:59;;;;;;;13.23;10.48;;;32.50;99.90;;;;;;5072178;28;20044;-59
2023/07/09 09:40:28;;;;;;;16.52;10.82;;;30.10;99.90;;;;;;5073116;28;20401;-60
2023/07/09 09:43:00;;;;;;;13.10;9.95;;;30.20;99.90;;;;;;5072737;28;20728;-60
2023/07/09 09:45:38;;;;;;;17.27;10.10;;;30.20;99.90;;;;;;5072629;28;20105;-59
2023/07/09 09:48:28;;;;;;;12.50;9.80;;;30.30;99.90;;;;;;5072031;28;20415;-59
2023/07/09 09:51:00;;;;;;;12.40;8.40;;;30.50;99.90;;;;;;5072253;28;20472;-59
2023/07/09 09:53:28;;;;;;;13.65;8.95;;;30.50;99.90;;;;;;5072793;28;20047;-61
2023/07/09 09:55:56;;;;;;;14.98;9.00;;;30.40;99.90;;;;;;5071942;28;20388;-60
2023/07/09 09:58:29;;;;;;;12.57;10.20;;;30.40;99.90;;;;;;5071821;28;20093;-59
2023/07/09 10:00:57;;;;;;;12.07;8.20;;;30.40;99.90;;;;;;5071031;28;20131;-60
2023/07/09 10:03:34;;;;;;;11.30;8.52;;;30.50;99.90;;;;;;5072674;28;20127;-59
2023/07/09 10:06:05;;;;;;;17.88;9.32;;;30.80;99.90;;;;;;5070975;28;20086;-59
2023/07/09 10:08:37;;;;;;;11.95;9.13;;;30.80;99.90;;;;;;5071784;28;20048;-59
2023/07/09 10:11:26;;;;;;;13.57;9.77;;;30.60;99.90;;;;;;5071668;28;20075;-59
2023/07/09 10:13:58;;;;;;;12.10;8.02;;;30.60;99.90;;;;;;5070803;28;20040;-59
2023/07/09 10:16:44;;;;;;;12.77;7.47;;;30.60;99.90;;;;;;5072421;28;20070;-59
2023/07/09 10:19:28;;;;;;;12.57;9.40;;;30.50;99.90;;;;;;5072617;28;20047;-60
2023/07/09 10:21:53;;;;;;;12.65;8.23;;;30.60;99.90;;;;;;5072305;28;20058;-59
2023/07/09 10:24:52;;;;;;;10.02;7.95;;;30.70;99.90;;;;;;5072237;28;20040;-59
2023/07/09 10:27:40;;;;;;;17.00;8.68;;;30.80;99.90;;;;;;5071282;28;20100;-60
2023/07/09 10:30:16;;;;;;;13.43;9.52;;;29.40;99.90;;;;;;5072129;28;20146;-59
2023/07/09 10:33:08;;;;;;;10.98;8.00;;;30.60;99.90;;;;;;5073111;28;20112;-59
2023/07/09 10:35:54;;;;;;;12.00;8.63;;;30.80;99.90;;;;;;5072247;28;20398;-59
2023/07/09 10:38:26;;;;;;;13.75;8.40;;;30.80;99.90;;;;;;5072161;28;20036;-59
2023/07/09 10:40:59;;;;;;;12.05;9.00;;;31.00;99.90;;;;;;5072805;28;20044;-58
2023/07/09 10:43:35;;;;;;;14.65;8.63;;;30.80;99.90;;;;;;5071785;28;20048;-59
2023/07/09 10:46:11;;;;;;;11.57;7.20;;;31.00;99.90;;;;;;5071654;28;20044;-60
2023/07/09 10:48:43;;;;;;;14.60;8.30;;;31.00;99.90;;;;;;5055386;28;20564;-60
2023/07/09 10:51:32;;;;;;;12.38;7.68;;;30.90;99.90;;;;;;5071759;28;20230;-59
2023/07/09 10:54:04;;;;;;;12.57;7.95;;;30.90;99.90;;;;;;5072347;28;20048;-60
2023/07/09 10:56:37;;;;;;;13.85;8.13;;;30.70;99.90;;;;;;5072204;28;20040;-59
2023/07/09 10:59:31;;;;;;;10.55;7.40;;;30.90;99.90;;;;;;5069871;28;20036;-59
2023/07/09 11:02:22;;;;;;;12.93;8.70;;;30.90;99.90;;;;;;5074099;28;20055;-59
2023/07/09 11:04:56;;;;;;;13.98;8.10;;;30.80;99.90;;;;;;5074397;28;20505;-59
2023/07/09 11:07:45;;;;;;;12.52;7.82;;;30.70;99.90;;;;;;5074833;28;20408;-60
2023/07/09 11:10:20;;;;;;;8.40;6.07;;;30.60;99.90;;;;;;5074728;28;20052;-59
2023/07/09 11:13:00;;;;;;;10.40;6.13;;;30.40;99.90;;;;;;5075697;28;20063;-59
2023/07/09 11:15:37;;;;;;;8.50;5.68;;;30.40;99.90;;;;;;5075088;28;20572;-59
2023/07/09 11:18:07;;;;;;;12.60;5.63;;;30.40;99.90;;;;;;5073531;28;20337;-59
2023/07/09 11:20:42;;;;;;;9.05;6.05;;;30.50;99.90;;;;;;5075702;28;20543;-60
2023/07/09 11:23:17;;;;;;;7.18;4.88;;;30.70;99.90;;;;;;5075166;28;20101;-60
2023/07/09 11:25:48;;;;;;;9.93;4.70;;;30.50;99.90;;;;;;5075420;28;20048;-60
2023/07/09 11:28:14;;;;;;;;;;;30.30;99.90;;;;;;5075538;28;20233;-59
2023/07/09 11:30:54;;;;;;;11.55;5.55;;;30.30;99.90;;;;;;5074483;28;20441;-59
2023/07/09 11:33:27;;;;;;;10.63;5.20;;;30.40;99.90;;;;;;5075455;28;20052;-60
2023/07/09 11:36:15;;;;;;;11.15;5.07;;;30.40;99.90;;;;;;5074560;28;20974;-60
2023/07/09 11:38:48;;;;;;;8.45;5.15;;;30.70;99.90;;;;;;5075460;28;20460;-59
2023/07/09 11:41:35;;;;;;;11.90;6.10;;;30.80;99.90;;;;;;5074639;28;20075;-60
2023/07/09 11:44:12;;;;;;;9.35;5.60;;;30.80;99.90;;;;;;5074445;28;20065;-59
2023/07/09 11:47:04;;;;;;;8.77;6.13;;;30.90;99.90;;;;;;5074364;28;20130;-58
2023/07/09 11:49:52;;;;;;;8.07;5.40;;;30.80;99.90;;;;;;5033393;28;20044;-59
2023/07/09 11:52:25;;;;;;;11.02;4.88;;;31.00;99.90;;;;;;5063118;28;20055;-60
2023/07/09 11:54:51;;;;;;;8.52;5.15;;;31.20;99.90;;;;;;5075447;28;20044;-59
2023/07/09 11:57:18;;;;;;;9.55;5.10;;;31.10;99.90;;;;;;5056991;28;20043;-59
2023/07/09 11:59:44;;;;;;;11.32;5.20;;;31.30;99.90;;;;;;5074997;28;20771;-60
2023/07/09 12:02:19;;;;;;;8.43;4.97;;;31.30;99.90;;;;;;5075501;28;20044;-61
2023/07/09 12:04:49;;;;;;;8.48;4.78;;;31.30;99.90;;;;;;5075011;28;20051;-59
2023/07/09 12:07:16;;;;;;;7.57;4.73;;;31.60;99.90;;;;;;5075266;28;20440;-58
2023/07/09 12:09:50;;;;;;;9.63;5.00;;;31.60;99.90;;;;;;5057483;28;20039;-59
2023/07/09 12:12:28;;;;;;;14.93;5.88;;;31.50;99.90;;;;;;5073727;28;20052;-60
2023/07/09 12:14:54;;;;;;;9.30;5.40;;;31.60;99.90;;;;;;5074363;28;20027;-60
2023/07/09 12:17:26;;;;;;;9.20;5.30;;;31.40;99.90;;;;;;5073835;28;20389;-58
2023/07/09 12:19:52;;;;;;;9.63;5.43;;;31.60;99.90;;;;;;5074433;28;20036;-60
2023/07/09 12:22:22;;;;;;;8.55;5.60;;;31.30;99.90;;;;;;5074240;28;20689;-59
2023/07/09 12:24:50;;;;;;;8.00;4.88;;;31.20;99.90;;;;;;5074783;28;20046;-59
2023/07/09 12:27:24;;;;;;;9.65;4.95;;;31.50;99.90;;;;;;5056202;28;20044;-60
2023/07/09 12:29:53;;;;;;;9.07;5.63;;;31.30;99.90;;;;;;5074091;28;20439;-59
2023/07/09 12:32:22;;;;;;;10.38;5.38;;;32.60;99.90;;;;;;5074455;28;20346;-59
2023/07/09 12:34:51;;;;;;;10.75;5.93;;;31.20;99.90;;;;;;5072559;28;20394;-59
2023/07/09 12:37:18;;;;;;;11.55;5.68;;;31.30;99.90;;;;;;5073212;28;20032;-59
2023/07/09 12:39:44;;;;;;;12.60;6.43;;;31.10;99.90;;;;;;5072793;28;20122;-59
2023/07/09 12:42:30;;;;;;;13.32;6.78;;;31.00;99.90;;;;;;5073754;28;20124;-59
2023/07/09 12:44:56;;;;;;;9.77;6.10;;;30.90;99.90;;;;;;5073782;28;20377;-59
2023/07/09 12:47:24;;;;;;;10.07;6.25;;;30.50;99.90;;;;;;5055151;28;20323;-59
2023/07/09 12:49:51;;;;;;;10.13;6.22;;;30.90;99.90;;;;;;5073108;28;20043;-59
2023/07/09 12:52:24;;;;;;;9.77;5.80;;;30.50;99.90;;;;;;5055447;28;20036;-59